DFPIF EDDP-EDDH
Flight info
| Callsign | DFPIF |
|---|---|
| Flight time | 0h 54m |
| Altitude | 26000 |
| Route | PENEM1N PENEM Y233 ODLUN Z207 MAG M736 LODRO/N0275F280 M736 SOGMA M748 ERNUD M726 BKD L619 BUMIL/N0272F240 M748 RARUP RARUP6A |
| Aircraft | SF50/L-BDGRSWY/LB2U2 |
Departure
| Time | 2026-04-20 14:09 |
|---|---|
| Airport | Leipzig/Halle Airport (EDDP) |
Arrival
| Time | 2026-04-20 15:03 |
|---|---|
| Airport | Hamburg Helmut Schmidt Airport (EDDH) |
| Time | Latitude | Longitude | Altitude | Speed | Heading |
|---|---|---|---|---|---|
| 2026-04-20 13:43 | 51.42036 | 12.21415 | 428 ft | 0 kts | 195° |
| 2026-04-20 13:59 | 51.42003 | 12.21402 | 428 ft | 11 kts | 197° |
| 2026-04-20 13:59 | 51.41915 | 12.21408 | 428 ft | 15 kts | 106° |
| 2026-04-20 14:00 | 51.41886 | 12.21566 | 431 ft | 15 kts | 106° |
| 2026-04-20 14:00 | 51.41856 | 12.21740 | 430 ft | 18 kts | 104° |
| 2026-04-20 14:00 | 51.41819 | 12.21952 | 426 ft | 21 kts | 105° |
| 2026-04-20 14:00 | 51.41780 | 12.22187 | 429 ft | 23 kts | 104° |
| 2026-04-20 14:01 | 51.41735 | 12.22443 | 423 ft | 24 kts | 105° |
| 2026-04-20 14:01 | 51.41694 | 12.22684 | 442 ft | 21 kts | 106° |
| 2026-04-20 14:01 | 51.41656 | 12.22904 | 450 ft | 20 kts | 105° |
| 2026-04-20 14:01 | 51.41621 | 12.23106 | 456 ft | 18 kts | 105° |
| 2026-04-20 14:02 | 51.41601 | 12.23303 | 460 ft | 19 kts | 90° |
| 2026-04-20 14:02 | 51.41610 | 12.23525 | 461 ft | 21 kts | 86° |
| 2026-04-20 14:02 | 51.41620 | 12.23761 | 466 ft | 22 kts | 85° |
| 2026-04-20 14:02 | 51.41632 | 12.24020 | 469 ft | 24 kts | 86° |
| 2026-04-20 14:03 | 51.41645 | 12.24290 | 472 ft | 26 kts | 85° |
| 2026-04-20 14:03 | 51.41658 | 12.24579 | 472 ft | 25 kts | 86° |
| 2026-04-20 14:03 | 51.41733 | 12.24801 | 473 ft | 24 kts | 12° |
| 2026-04-20 14:03 | 51.41893 | 12.24861 | 482 ft | 24 kts | 12° |
| 2026-04-20 14:04 | 51.42071 | 12.24932 | 481 ft | 28 kts | 12° |
| 2026-04-20 14:04 | 51.42260 | 12.25003 | 480 ft | 27 kts | 13° |
| 2026-04-20 14:04 | 51.42438 | 12.25072 | 470 ft | 26 kts | 14° |
| 2026-04-20 14:04 | 51.42611 | 12.25138 | 460 ft | 24 kts | 12° |
| 2026-04-20 14:05 | 51.42777 | 12.25198 | 451 ft | 24 kts | 7° |
| 2026-04-20 14:05 | 51.42939 | 12.25258 | 438 ft | 23 kts | 15° |
| 2026-04-20 14:05 | 51.42994 | 12.25439 | 445 ft | 17 kts | 85° |
| 2026-04-20 14:05 | 51.43003 | 12.25632 | 444 ft | 18 kts | 86° |
| 2026-04-20 14:06 | 51.43012 | 12.25830 | 446 ft | 18 kts | 85° |
| 2026-04-20 14:06 | 51.43021 | 12.26025 | 446 ft | 18 kts | 86° |
| 2026-04-20 14:06 | 51.43031 | 12.26243 | 446 ft | 20 kts | 86° |
| 2026-04-20 14:06 | 51.43041 | 12.26454 | 449 ft | 19 kts | 85° |
| 2026-04-20 14:07 | 51.43052 | 12.26683 | 449 ft | 22 kts | 85° |
| 2026-04-20 14:07 | 51.43098 | 12.26873 | 453 ft | 16 kts | 25° |
| 2026-04-20 14:07 | 51.43199 | 12.26906 | 453 ft | 14 kts | 352° |
| 2026-04-20 14:07 | 51.43277 | 12.26819 | 452 ft | 15 kts | 314° |
| 2026-04-20 14:08 | 51.43360 | 12.26674 | 448 ft | 19 kts | 281° |
| 2026-04-20 14:08 | 51.43360 | 12.26629 | 448 ft | 0 kts | 265° |
| 2026-04-20 14:08 | 51.43358 | 12.26550 | 447 ft | 30 kts | 267° |
| 2026-04-20 14:08 | 51.43333 | 12.25893 | 444 ft | 86 kts | 266° |
| 2026-04-20 14:09 | 51.43266 | 12.24783 | 695 ft | 105 kts | 268° |
| 2026-04-20 14:09 | 51.43185 | 12.23576 | 1116 ft | 111 kts | 279° |
| 2026-04-20 14:09 | 51.43594 | 12.22519 | 1521 ft | 115 kts | 321° |
| 2026-04-20 14:09 | 51.44235 | 12.21704 | 1987 ft | 126 kts | 323° |
| 2026-04-20 14:10 | 51.44703 | 12.21065 | 2324 ft | 139 kts | 322° |
| 2026-04-20 14:10 | 51.45459 | 12.19938 | 2898 ft | 153 kts | 322° |
| 2026-04-20 14:10 | 51.46482 | 12.18388 | 3838 ft | 150 kts | 323° |
| 2026-04-20 14:10 | 51.47243 | 12.17239 | 4464 ft | 149 kts | 322° |
| 2026-04-20 14:11 | 51.47990 | 12.16087 | 5092 ft | 147 kts | 322° |
| 2026-04-20 14:11 | 51.48477 | 12.15333 | 5469 ft | 148 kts | 323° |
| 2026-04-20 14:11 | 51.49261 | 12.14211 | 5991 ft | 150 kts | 323° |
| 2026-04-20 14:11 | 51.50026 | 12.13061 | 6558 ft | 152 kts | 323° |
| 2026-04-20 14:12 | 51.50790 | 12.11902 | 7073 ft | 154 kts | 322° |
| 2026-04-20 14:12 | 51.51632 | 12.10616 | 7312 ft | 177 kts | 322° |
| 2026-04-20 14:12 | 51.52544 | 12.09277 | 7818 ft | 178 kts | 328° |
| 2026-04-20 14:12 | 51.53653 | 12.08466 | 8368 ft | 174 kts | 349° |
| 2026-04-20 14:13 | 51.54846 | 12.08288 | 8934 ft | 172 kts | 6° |
| 2026-04-20 14:13 | 51.56054 | 12.08349 | 9497 ft | 175 kts | 4° |
| 2026-04-20 14:13 | 51.57278 | 12.08365 | 10070 ft | 177 kts | 4° |
| 2026-04-20 14:13 | 51.58521 | 12.08403 | 10606 ft | 178 kts | 4° |
| 2026-04-20 14:14 | 51.59758 | 12.08443 | 11144 ft | 179 kts | 4° |
| 2026-04-20 14:14 | 51.60995 | 12.08488 | 11634 ft | 180 kts | 4° |
| 2026-04-20 14:14 | 51.62255 | 12.08532 | 12135 ft | 182 kts | 4° |
| 2026-04-20 14:14 | 51.63529 | 12.08577 | 12655 ft | 183 kts | 4° |
| 2026-04-20 14:15 | 51.64803 | 12.08620 | 13170 ft | 184 kts | 4° |
| 2026-04-20 14:15 | 51.66089 | 12.08665 | 13669 ft | 185 kts | 4° |
| 2026-04-20 14:15 | 51.67381 | 12.08713 | 14118 ft | 187 kts | 5° |
| 2026-04-20 14:15 | 51.68685 | 12.08756 | 14548 ft | 188 kts | 5° |
| 2026-04-20 14:16 | 51.70000 | 12.08600 | 14969 ft | 193 kts | 351° |
| 2026-04-20 14:16 | 51.71258 | 12.07778 | 15399 ft | 199 kts | 335° |
| 2026-04-20 14:16 | 51.72326 | 12.06357 | 15814 ft | 205 kts | 318° |
| 2026-04-20 14:16 | 51.73283 | 12.04633 | 16223 ft | 207 kts | 318° |
| 2026-04-20 14:17 | 51.74264 | 12.02930 | 16636 ft | 208 kts | 318° |
| 2026-04-20 14:17 | 51.75244 | 12.01206 | 17045 ft | 209 kts | 318° |
| 2026-04-20 14:17 | 51.76234 | 11.99455 | 17451 ft | 210 kts | 318° |
| 2026-04-20 14:17 | 51.77224 | 11.97707 | 17852 ft | 212 kts | 318° |
| 2026-04-20 14:18 | 51.78222 | 11.95941 | 18249 ft | 213 kts | 318° |
| 2026-04-20 14:18 | 51.79225 | 11.94169 | 18607 ft | 214 kts | 318° |
| 2026-04-20 14:18 | 51.80230 | 11.92385 | 18946 ft | 215 kts | 318° |
| 2026-04-20 14:18 | 51.81242 | 11.90589 | 19275 ft | 217 kts | 318° |
| 2026-04-20 14:19 | 51.82260 | 11.88783 | 19601 ft | 218 kts | 318° |
| 2026-04-20 14:19 | 51.83269 | 11.86989 | 19920 ft | 219 kts | 318° |
| 2026-04-20 14:19 | 51.84316 | 11.85201 | 20230 ft | 218 kts | 324° |
| 2026-04-20 14:19 | 51.85581 | 11.83916 | 20541 ft | 213 kts | 341° |
| 2026-04-20 14:20 | 51.86980 | 11.83239 | 20853 ft | 209 kts | 355° |
| 2026-04-20 14:20 | 51.88415 | 11.82831 | 21160 ft | 209 kts | 354° |
| 2026-04-20 14:20 | 51.89843 | 11.82376 | 21504 ft | 209 kts | 354° |
| 2026-04-20 14:20 | 51.91267 | 11.81940 | 21866 ft | 208 kts | 354° |
| 2026-04-20 14:21 | 51.92691 | 11.81509 | 22230 ft | 208 kts | 354° |
| 2026-04-20 14:21 | 51.94111 | 11.81077 | 22589 ft | 207 kts | 353° |
| 2026-04-20 14:21 | 51.95529 | 11.80641 | 22941 ft | 207 kts | 353° |
| 2026-04-20 14:21 | 51.96941 | 11.80212 | 23268 ft | 206 kts | 353° |
| 2026-04-20 14:22 | 51.98354 | 11.79779 | 23575 ft | 207 kts | 353° |
| 2026-04-20 14:22 | 51.99774 | 11.79491 | 23869 ft | 204 kts | 4° |
| 2026-04-20 14:22 | 52.01159 | 11.79733 | 24152 ft | 203 kts | 9° |
| 2026-04-20 14:22 | 52.02578 | 11.79966 | 24447 ft | 203 kts | 8° |
| 2026-04-20 14:23 | 52.03962 | 11.80190 | 24740 ft | 202 kts | 9° |
| 2026-04-20 14:23 | 52.05364 | 11.80429 | 25024 ft | 202 kts | 9° |
| 2026-04-20 14:23 | 52.06759 | 11.80671 | 25299 ft | 202 kts | 9° |
| 2026-04-20 14:23 | 52.08155 | 11.80911 | 25565 ft | 202 kts | 9° |
| 2026-04-20 14:24 | 52.09551 | 11.81151 | 25856 ft | 201 kts | 9° |
| 2026-04-20 14:24 | 52.10946 | 11.81392 | 26097 ft | 204 kts | 9° |
| 2026-04-20 14:24 | 52.12402 | 11.81645 | 26104 ft | 215 kts | 9° |
| 2026-04-20 14:24 | 52.13925 | 11.81907 | 26109 ft | 225 kts | 9° |
| 2026-04-20 14:25 | 52.15505 | 11.82176 | 26107 ft | 232 kts | 9° |
| 2026-04-20 14:25 | 52.17132 | 11.82457 | 26106 ft | 238 kts | 9° |
| 2026-04-20 14:25 | 52.18805 | 11.82744 | 26105 ft | 244 kts | 8° |
| 2026-04-20 14:25 | 52.20513 | 11.83037 | 26102 ft | 249 kts | 8° |
| 2026-04-20 14:26 | 52.22255 | 11.83340 | 26107 ft | 255 kts | 8° |
| 2026-04-20 14:26 | 52.24016 | 11.83642 | 26104 ft | 261 kts | 8° |
| 2026-04-20 14:26 | 52.25840 | 11.83960 | 26107 ft | 266 kts | 8° |
| 2026-04-20 14:26 | 52.27716 | 11.84285 | 26100 ft | 270 kts | 8° |
| 2026-04-20 14:27 | 52.29573 | 11.84607 | 26099 ft | 273 kts | 8° |
| 2026-04-20 14:27 | 52.31478 | 11.84939 | 26100 ft | 277 kts | 8° |
| 2026-04-20 14:27 | 52.33402 | 11.85271 | 26102 ft | 280 kts | 8° |
| 2026-04-20 14:27 | 52.35355 | 11.85610 | 26100 ft | 283 kts | 8° |
| 2026-04-20 14:28 | 52.37321 | 11.85953 | 26097 ft | 286 kts | 8° |
| 2026-04-20 14:28 | 52.39305 | 11.86299 | 26098 ft | 287 kts | 8° |
| 2026-04-20 14:28 | 52.41293 | 11.86643 | 26095 ft | 288 kts | 8° |
| 2026-04-20 14:28 | 52.43286 | 11.86989 | 26096 ft | 288 kts | 8° |
| 2026-04-20 14:29 | 52.45284 | 11.87340 | 26094 ft | 289 kts | 8° |
| 2026-04-20 14:29 | 52.47292 | 11.87689 | 26092 ft | 290 kts | 7° |
| 2026-04-20 14:29 | 52.49295 | 11.88039 | 26092 ft | 290 kts | 8° |
| 2026-04-20 14:29 | 52.51305 | 11.88393 | 26093 ft | 290 kts | 7° |
| 2026-04-20 14:30 | 52.53316 | 11.88744 | 26096 ft | 290 kts | 7° |
| 2026-04-20 14:30 | 52.55297 | 11.89093 | 26096 ft | 289 kts | 8° |
| 2026-04-20 14:30 | 52.57299 | 11.89445 | 26095 ft | 289 kts | 8° |
| 2026-04-20 14:30 | 52.59296 | 11.89794 | 26095 ft | 288 kts | 8° |
| 2026-04-20 14:31 | 52.61296 | 11.89947 | 26088 ft | 288 kts | 359° |
| 2026-04-20 14:31 | 52.63280 | 11.89402 | 26084 ft | 291 kts | 347° |
| 2026-04-20 14:31 | 52.65173 | 11.88176 | 26087 ft | 295 kts | 336° |
| 2026-04-20 14:31 | 52.66898 | 11.86297 | 26084 ft | 299 kts | 326° |
| 2026-04-20 14:32 | 52.68544 | 11.84187 | 26087 ft | 300 kts | 326° |
| 2026-04-20 14:32 | 52.70208 | 11.82101 | 26087 ft | 301 kts | 326° |
| 2026-04-20 14:32 | 52.71877 | 11.79996 | 26087 ft | 302 kts | 326° |
| 2026-04-20 14:32 | 52.73541 | 11.77879 | 26087 ft | 302 kts | 326° |
| 2026-04-20 14:33 | 52.75211 | 11.75761 | 26086 ft | 303 kts | 326° |
| 2026-04-20 14:33 | 52.76879 | 11.73643 | 26090 ft | 302 kts | 326° |
| 2026-04-20 14:33 | 52.78539 | 11.71534 | 26091 ft | 301 kts | 326° |
| 2026-04-20 14:33 | 52.80201 | 11.69418 | 26091 ft | 301 kts | 326° |
| 2026-04-20 14:34 | 52.81833 | 11.67339 | 26092 ft | 300 kts | 326° |
| 2026-04-20 14:34 | 52.83504 | 11.65210 | 26092 ft | 299 kts | 326° |
| 2026-04-20 14:34 | 52.85130 | 11.63132 | 26091 ft | 298 kts | 326° |
| 2026-04-20 14:34 | 52.86773 | 11.61033 | 26087 ft | 298 kts | 326° |
| 2026-04-20 14:35 | 52.88414 | 11.58933 | 26092 ft | 298 kts | 326° |
| 2026-04-20 14:35 | 52.90057 | 11.56830 | 26096 ft | 299 kts | 326° |
| 2026-04-20 14:35 | 52.91779 | 11.54919 | 26095 ft | 296 kts | 336° |
| 2026-04-20 14:35 | 52.93696 | 11.53709 | 26096 ft | 294 kts | 348° |
| 2026-04-20 14:36 | 52.95710 | 11.53221 | 26096 ft | 292 kts | 0° |
| 2026-04-20 14:36 | 52.97720 | 11.53405 | 26094 ft | 287 kts | 7° |
| 2026-04-20 14:36 | 52.99714 | 11.53287 | 26098 ft | 289 kts | 354° |
| 2026-04-20 14:36 | 53.01649 | 11.52444 | 26097 ft | 294 kts | 342° |
| 2026-04-20 14:37 | 53.03475 | 11.50882 | 26098 ft | 299 kts | 330° |
| 2026-04-20 14:37 | 53.05077 | 11.48643 | 26097 ft | 304 kts | 317° |
| 2026-04-20 14:37 | 53.06355 | 11.45813 | 26097 ft | 310 kts | 304° |
| 2026-04-20 14:37 | 53.07386 | 11.42655 | 26099 ft | 310 kts | 302° |
| 2026-04-20 14:38 | 53.08422 | 11.39506 | 26105 ft | 311 kts | 303° |
| 2026-04-20 14:38 | 53.09462 | 11.36354 | 26109 ft | 310 kts | 302° |
| 2026-04-20 14:38 | 53.10492 | 11.33198 | 26108 ft | 310 kts | 302° |
| 2026-04-20 14:38 | 53.11583 | 11.30130 | 26100 ft | 305 kts | 310° |
| 2026-04-20 14:39 | 53.13003 | 11.27565 | 26073 ft | 295 kts | 322° |
| 2026-04-20 14:39 | 53.14592 | 11.25565 | 25114 ft | 287 kts | 330° |
| 2026-04-20 14:39 | 53.16276 | 11.23688 | 23972 ft | 293 kts | 329° |
| 2026-04-20 14:39 | 53.17950 | 11.21765 | 22763 ft | 292 kts | 328° |
| 2026-04-20 14:40 | 53.19623 | 11.19815 | 21386 ft | 294 kts | 328° |
| 2026-04-20 14:40 | 53.21281 | 11.17894 | 20822 ft | 279 kts | 329° |
| 2026-04-20 14:40 | 53.22873 | 11.16058 | 20530 ft | 291 kts | 329° |
| 2026-04-20 14:40 | 53.24569 | 11.14112 | 20152 ft | 299 kts | 329° |
| 2026-04-20 14:41 | 53.26290 | 11.12111 | 19748 ft | 304 kts | 329° |
| 2026-04-20 14:41 | 53.28034 | 11.10086 | 19338 ft | 306 kts | 329° |
| 2026-04-20 14:41 | 53.29793 | 11.08044 | 18925 ft | 307 kts | 329° |
| 2026-04-20 14:41 | 53.31550 | 11.06001 | 18527 ft | 308 kts | 329° |
| 2026-04-20 14:42 | 53.33311 | 11.03955 | 18088 ft | 308 kts | 329° |
| 2026-04-20 14:42 | 53.35069 | 11.01904 | 17681 ft | 308 kts | 329° |
| 2026-04-20 14:42 | 53.36831 | 10.99851 | 17275 ft | 310 kts | 329° |
| 2026-04-20 14:42 | 53.38609 | 10.97781 | 16861 ft | 311 kts | 329° |
| 2026-04-20 14:43 | 53.40355 | 10.95735 | 16463 ft | 309 kts | 329° |
| 2026-04-20 14:43 | 53.42112 | 10.93681 | 16060 ft | 307 kts | 329° |
| 2026-04-20 14:43 | 53.43863 | 10.91636 | 15658 ft | 306 kts | 329° |
| 2026-04-20 14:43 | 53.45607 | 10.89589 | 15265 ft | 305 kts | 329° |
| 2026-04-20 14:44 | 53.47344 | 10.87555 | 14867 ft | 303 kts | 329° |
| 2026-04-20 14:44 | 53.49065 | 10.85535 | 14481 ft | 301 kts | 329° |
| 2026-04-20 14:44 | 53.50782 | 10.83515 | 14083 ft | 300 kts | 329° |
| 2026-04-20 14:44 | 53.52490 | 10.81508 | 13675 ft | 300 kts | 330° |
| 2026-04-20 14:45 | 53.54200 | 10.79497 | 13287 ft | 299 kts | 329° |
| 2026-04-20 14:45 | 53.55901 | 10.77490 | 12897 ft | 298 kts | 329° |
| 2026-04-20 14:45 | 53.57574 | 10.75515 | 12522 ft | 297 kts | 329° |
| 2026-04-20 14:45 | 53.59258 | 10.73509 | 12135 ft | 295 kts | 327° |
| 2026-04-20 14:46 | 53.60738 | 10.71024 | 11734 ft | 300 kts | 312° |
| 2026-04-20 14:46 | 53.61820 | 10.68044 | 11349 ft | 304 kts | 297° |
| 2026-04-20 14:46 | 53.62461 | 10.64637 | 11194 ft | 307 kts | 283° |
| 2026-04-20 14:46 | 53.62614 | 10.61021 | 11190 ft | 310 kts | 268° |
| 2026-04-20 14:47 | 53.62243 | 10.57445 | 11188 ft | 312 kts | 253° |
| 2026-04-20 14:47 | 53.61572 | 10.53977 | 11187 ft | 313 kts | 251° |
| 2026-04-20 14:47 | 53.60907 | 10.50472 | 11190 ft | 316 kts | 252° |
| 2026-04-20 14:48 | 53.59589 | 10.43522 | 10979 ft | 306 kts | 251° |
| 2026-04-20 14:48 | 53.58939 | 10.40160 | 10796 ft | 306 kts | 251° |
| 2026-04-20 14:48 | 53.58287 | 10.36752 | 10603 ft | 305 kts | 251° |
| 2026-04-20 14:48 | 53.57636 | 10.33357 | 10406 ft | 305 kts | 251° |
| 2026-04-20 14:49 | 53.56980 | 10.29950 | 10210 ft | 305 kts | 251° |
| 2026-04-20 14:49 | 53.56330 | 10.26580 | 9997 ft | 303 kts | 251° |
| 2026-04-20 14:49 | 53.55681 | 10.23219 | 9803 ft | 299 kts | 251° |
| 2026-04-20 14:49 | 53.55040 | 10.19899 | 9593 ft | 299 kts | 251° |
| 2026-04-20 14:50 | 53.54397 | 10.16586 | 9394 ft | 297 kts | 251° |
| 2026-04-20 14:50 | 53.53753 | 10.13268 | 9196 ft | 299 kts | 251° |
| 2026-04-20 14:50 | 53.53109 | 10.09956 | 8998 ft | 296 kts | 251° |
| 2026-04-20 14:50 | 53.52469 | 10.06675 | 8803 ft | 295 kts | 251° |
| 2026-04-20 14:51 | 53.51840 | 10.03447 | 8610 ft | 293 kts | 251° |
| 2026-04-20 14:51 | 53.51203 | 10.00192 | 8416 ft | 294 kts | 251° |
| 2026-04-20 14:51 | 53.50566 | 9.96945 | 8225 ft | 291 kts | 251° |
| 2026-04-20 14:51 | 53.49706 | 9.93857 | 8023 ft | 293 kts | 235° |
| 2026-04-20 14:52 | 53.48453 | 9.91220 | 7836 ft | 287 kts | 227° |
| 2026-04-20 14:52 | 53.47159 | 9.88645 | 7651 ft | 287 kts | 229° |
| 2026-04-20 14:52 | 53.45890 | 9.86077 | 7460 ft | 287 kts | 229° |
| 2026-04-20 14:52 | 53.44616 | 9.83512 | 7274 ft | 285 kts | 228° |
| 2026-04-20 14:53 | 53.43340 | 9.80957 | 7057 ft | 286 kts | 228° |
| 2026-04-20 14:53 | 53.42060 | 9.78396 | 6779 ft | 286 kts | 229° |
| 2026-04-20 14:53 | 53.40792 | 9.75853 | 6541 ft | 284 kts | 228° |
| 2026-04-20 14:53 | 53.39533 | 9.73340 | 6326 ft | 278 kts | 229° |
| 2026-04-20 14:54 | 53.38294 | 9.70864 | 6131 ft | 281 kts | 228° |
| 2026-04-20 14:54 | 53.37247 | 9.68178 | 5982 ft | 268 kts | 245° |
| 2026-04-20 14:54 | 53.36641 | 9.65296 | 5807 ft | 254 kts | 255° |
| 2026-04-20 14:54 | 53.36689 | 9.62423 | 4997 ft | 241 kts | 295° |
| 2026-04-20 14:55 | 53.37755 | 9.60407 | 4704 ft | 235 kts | 336° |
| 2026-04-20 14:55 | 53.39309 | 9.60007 | 4426 ft | 225 kts | 15° |
| 2026-04-20 14:55 | 53.40729 | 9.60933 | 4177 ft | 212 kts | 29° |
| 2026-04-20 14:55 | 53.42003 | 9.61990 | 3916 ft | 199 kts | 30° |
| 2026-04-20 14:56 | 53.43225 | 9.63005 | 3653 ft | 193 kts | 30° |
| 2026-04-20 14:56 | 53.44408 | 9.63963 | 3408 ft | 189 kts | 30° |
| 2026-04-20 14:56 | 53.45587 | 9.64922 | 3146 ft | 187 kts | 30° |
| 2026-04-20 14:56 | 53.46744 | 9.65899 | 3001 ft | 181 kts | 34° |
| 2026-04-20 14:57 | 53.47562 | 9.67475 | 2993 ft | 182 kts | 56° |
| 2026-04-20 14:57 | 53.48354 | 9.69164 | 2999 ft | 184 kts | 50° |
| 2026-04-20 14:57 | 53.49184 | 9.70819 | 3000 ft | 185 kts | 52° |
| 2026-04-20 14:57 | 53.50001 | 9.72489 | 3000 ft | 186 kts | 51° |
| 2026-04-20 14:58 | 53.50840 | 9.74155 | 3002 ft | 187 kts | 51° |
| 2026-04-20 14:58 | 53.51674 | 9.75843 | 3005 ft | 187 kts | 52° |
| 2026-04-20 14:58 | 53.52478 | 9.77464 | 2992 ft | 173 kts | 52° |
| 2026-04-20 14:58 | 53.53235 | 9.79007 | 2811 ft | 170 kts | 51° |
| 2026-04-20 14:59 | 53.53739 | 9.80006 | 2665 ft | 167 kts | 50° |
| 2026-04-20 14:59 | 53.54462 | 9.81477 | 2440 ft | 157 kts | 51° |
| 2026-04-20 14:59 | 53.55134 | 9.82821 | 2228 ft | 145 kts | 49° |
| 2026-04-20 14:59 | 53.55901 | 9.84373 | 1991 ft | 121 kts | 49° |
| 2026-04-20 15:00 | 53.56442 | 9.85462 | 1820 ft | 122 kts | 48° |
| 2026-04-20 15:00 | 53.56804 | 9.86191 | 1709 ft | 123 kts | 49° |
| 2026-04-20 15:00 | 53.57334 | 9.87285 | 1543 ft | 118 kts | 47° |
| 2026-04-20 15:00 | 53.57870 | 9.88352 | 1378 ft | 120 kts | 48° |
| 2026-04-20 15:01 | 53.58400 | 9.89428 | 1210 ft | 120 kts | 49° |
| 2026-04-20 15:01 | 53.58936 | 9.90517 | 1057 ft | 116 kts | 50° |
| 2026-04-20 15:01 | 53.59431 | 9.91540 | 839 ft | 110 kts | 51° |
| 2026-04-20 15:01 | 53.59900 | 9.92492 | 728 ft | 96 kts | 50° |
| 2026-04-20 15:02 | 53.60269 | 9.93246 | 582 ft | 81 kts | 50° |
| 2026-04-20 15:02 | 53.60753 | 9.94188 | 474 ft | 125 kts | 49° |
| 2026-04-20 15:02 | 53.61262 | 9.95206 | 334 ft | 105 kts | 51° |
| 2026-04-20 15:02 | 53.61713 | 9.96114 | 177 ft | 98 kts | 52° |
| 2026-04-20 15:03 | 53.62140 | 9.97002 | 50 ft | 97 kts | 50° |
| 2026-04-20 15:03 | 53.62524 | 9.97778 | 36 ft | 77 kts | 50° |
| 2026-04-20 15:03 | 53.62736 | 9.98214 | 36 ft | 16 kts | 52° |
| 2026-04-20 15:03 | 53.62755 | 9.98325 | 37 ft | 7 kts | 117° |
| 2026-04-20 15:04 | 53.62732 | 9.98371 | 38 ft | 3 kts | 137° |
| 2026-04-20 15:04 | 53.62703 | 9.98411 | 39 ft | 10 kts | 140° |
| 2026-04-20 15:04 | 53.62676 | 9.98495 | 41 ft | 8 kts | 78° |
| 2026-04-20 15:04 | 53.62705 | 9.98579 | 41 ft | 8 kts | 52° |
| 2026-04-20 15:05 | 53.62700 | 9.98655 | 41 ft | 8 kts | 148° |
| 2026-04-20 15:05 | 53.62652 | 9.98697 | 41 ft | 9 kts | 153° |
| 2026-04-20 15:05 | 53.62625 | 9.98721 | 41 ft | 0 kts | 154° |
| 2026-04-20 15:05 | 53.62603 | 9.98725 | 41 ft | 7 kts | 220° |
| 2026-04-20 15:06 | 53.62587 | 9.98682 | 41 ft | 1 kts | 245° |
| 2026-04-20 15:06 | 53.62585 | 9.98676 | 41 ft | 0 kts | 246° |